Time;durP1;ratioP1;P1;durP2;ratioP2;P2;SDS_P1;SDS_P2;PMS_P1;PMS_P2;Temp;Humidity;BMP_temperature;BMP_pressure;BME280_temperature;BME280_humidity;BME280_pressure;Samples;Min_cycle;Max_cycle;Signal;HPM_P1;HPM_P2
2023/05/25 00:00:11;;;;;;;15.97;5.37;;;11.60;31.20;;;;;;5067792;28;46557;-69
2023/05/25 00:02:38;;;;;;;19.50;5.20;;;11.60;31.30;;;;;;5066007;28;45903;-68
2023/05/25 00:05:04;;;;;;;14.10;4.37;;;11.60;31.40;;;;;;5066529;28;46287;-69
2023/05/25 00:07:30;;;;;;;12.10;5.33;;;11.60;31.30;;;;;;5067823;28;46410;-69
2023/05/25 00:09:55;;;;;;;11.13;4.33;;;11.50;31.40;;;;;;5063488;28;46380;-69
2023/05/25 00:12:21;;;;;;;13.90;5.13;;;11.50;31.10;;;;;;5067349;28;46503;-69
2023/05/25 00:14:47;;;;;;;11.70;4.90;;;11.50;31.20;;;;;;5066638;28;45967;-69
2023/05/25 00:17:14;;;;;;;12.87;5.13;;;11.50;31.40;;;;;;5066439;28;47405;-71
2023/05/25 00:19:41;;;;;;;17.73;5.33;;;11.50;31.30;;;;;;5066283;28;45863;-70
2023/05/25 00:22:08;;;;;;;11.33;5.30;;;11.50;31.20;;;;;;5067520;28;46355;-69
2023/05/25 00:24:33;;;;;;;10.80;4.83;;;11.60;31.00;;;;;;5069329;28;46481;-69
2023/05/25 00:26:59;;;;;;;12.83;4.50;;;11.60;30.80;;;;;;5066816;28;46455;-69
2023/05/25 00:29:25;;;;;;;16.30;5.07;;;11.70;30.60;;;;;;5068959;27;45938;-69
2023/05/25 00:31:51;;;;;;;12.67;5.00;;;11.70;30.50;;;;;;5071370;28;46370;-70
2023/05/25 00:34:17;;;;;;;20.93;5.10;;;11.60;30.60;;;;;;5069309;28;46756;-68
2023/05/25 00:36:43;;;;;;;12.33;5.00;;;11.60;31.10;;;;;;5068339;28;47015;-69
2023/05/25 00:39:08;;;;;;;23.50;4.73;;;11.60;30.70;;;;;;5070809;28;46554;-67
2023/05/25 00:41:40;;;;;;;12.00;5.10;;;11.70;30.50;;;;;;5067601;28;46508;-67
2023/05/25 00:44:06;;;;;;;9.67;5.00;;;11.70;30.60;;;;;;5069263;28;46445;-68
2023/05/25 00:46:37;;;;;;;13.97;4.80;;;11.60;30.70;;;;;;5065795;28;46452;-68
2023/05/25 00:49:03;;;;;;;13.07;5.40;;;11.50;31.10;;;;;;5067465;27;46396;-68
2023/05/25 00:51:31;;;;;;;13.97;5.37;;;11.50;31.20;;;;;;5069561;28;46555;-68
2023/05/25 00:53:57;;;;;;;12.50;5.07;;;11.50;31.30;;;;;;5068759;28;46871;-68
2023/05/25 00:56:29;;;;;;;11.50;4.87;;;11.50;31.40;;;;;;5068132;28;46708;-69
2023/05/25 00:58:57;;;;;;;13.00;4.90;;;11.50;31.20;;;;;;5067063;28;46459;-69
2023/05/25 01:01:26;;;;;;;15.00;4.80;;;11.40;31.30;;;;;;5069359;28;46364;-69
2023/05/25 01:03:54;;;;;;;11.40;4.83;;;11.40;31.30;;;;;;5068267;27;46539;-68
2023/05/25 01:06:22;;;;;;;13.07;4.90;;;11.40;31.40;;;;;;5072353;28;46605;-69
2023/05/25 01:08:59;;;;;;;20.40;5.10;;;11.40;31.50;;;;;;5071021;28;46405;-70
2023/05/25 01:11:32;;;;;;;20.73;5.27;;;11.40;31.70;;;;;;5069418;28;46448;-70
2023/05/25 01:13:58;;;;;;;11.37;4.63;;;11.40;31.60;;;;;;5070352;28;46463;-69
2023/05/25 01:16:24;;;;;;;17.60;5.33;;;11.40;31.50;;;;;;5066028;28;48656;-69
2023/05/25 01:18:52;;;;;;;17.57;4.47;;;11.40;31.80;;;;;;5070710;28;45815;-69
2023/05/25 01:21:44;;;;;;;15.13;4.13;;;11.30;31.70;;;;;;5064845;27;46585;-69
2023/05/25 01:24:42;;;;;;;16.90;5.77;;;11.30;32.00;;;;;;5066263;28;46403;-69
2023/05/25 01:27:23;;;;;;;12.40;4.90;;;11.30;32.10;;;;;;5071055;28;47364;-69
2023/05/25 01:29:49;;;;;;;19.93;5.17;;;11.30;32.10;;;;;;5068951;28;46514;-69
2023/05/25 01:32:17;;;;;;;15.63;5.27;;;11.30;32.10;;;;;;5070947;28;46398;-69
2023/05/25 01:34:43;;;;;;;14.90;5.27;;;11.30;32.10;;;;;;5069366;28;46439;-70
2023/05/25 01:37:12;;;;;;;10.40;5.53;;;11.30;32.20;;;;;;5070351;28;46430;-68
2023/05/25 01:39:38;;;;;;;12.63;4.63;;;11.30;32.20;;;;;;5070174;28;45815;-69
2023/05/25 01:42:04;;;;;;;15.67;5.17;;;11.30;31.90;;;;;;5071305;28;45793;-69
2023/05/25 01:44:30;;;;;;;13.50;5.00;;;11.30;32.00;;;;;;5068919;28;46386;-69
2023/05/25 01:47:06;;;;;;;19.40;5.10;;;11.30;32.20;;;;;;5068789;28;46983;-69
2023/05/25 01:49:45;;;;;;;17.63;5.40;;;11.20;32.20;;;;;;5066314;28;46464;-67
2023/05/25 01:52:29;;;;;;;15.00;5.57;;;11.10;32.30;;;;;;5068697;28;46432;-68
2023/05/25 01:55:05;;;;;;;11.33;4.03;;;11.00;32.80;;;;;;5065057;28;46408;-68
2023/05/25 01:57:35;;;;;;;14.93;5.30;;;10.90;33.20;;;;;;5070121;28;47083;-73
2023/05/25 02:00:02;;;;;;;15.10;4.93;;;10.70;33.40;;;;;;5069182;28;46411;-69
2023/05/25 02:02:29;;;;;;;14.00;5.73;;;10.60;33.80;;;;;;5068263;28;45777;-70
2023/05/25 02:04:56;;;;;;;18.83;5.47;;;10.50;34.20;;;;;;5071585;28;46515;-69
2023/05/25 02:07:22;;;;;;;10.37;5.07;;;10.50;34.50;;;;;;5065081;28;46306;-68
2023/05/25 02:09:47;;;;;;;13.77;4.57;;;10.40;34.90;;;;;;5066295;28;46524;-69
2023/05/25 02:12:13;;;;;;;12.83;5.33;;;10.30;35.20;;;;;;5070380;28;46391;-73
2023/05/25 02:14:39;;;;;;;16.00;6.00;;;10.20;35.60;;;;;;5068775;28;46457;-68
2023/05/25 02:17:04;;;;;;;25.63;6.97;;;10.10;35.70;;;;;;5067190;28;47419;-70
2023/05/25 02:19:30;;;;;;;14.33;5.17;;;10.10;35.90;;;;;;5069181;28;46288;-68
2023/05/25 02:21:56;;;;;;;14.27;5.20;;;10.10;36.10;;;;;;5069005;28;46832;-69
2023/05/25 02:24:23;;;;;;;14.60;5.00;;;10.00;35.90;;;;;;5066408;27;46498;-69
2023/05/25 02:26:49;;;;;;;19.63;5.83;;;10.00;36.20;;;;;;5066123;28;47327;-70
2023/05/25 02:29:15;;;;;;;15.20;5.37;;;10.00;36.50;;;;;;5065152;28;46552;-69
2023/05/25 02:31:40;;;;;;;14.97;6.07;;;9.90;37.50;;;;;;5069136;28;46417;-68
2023/05/25 02:34:06;;;;;;;16.97;7.03;;;9.90;37.70;;;;;;5068235;28;46547;-69
2023/05/25 02:36:33;;;;;;;12.50;6.17;;;9.80;37.70;;;;;;5065996;28;47127;-69
2023/05/25 02:38:59;;;;;;;13.00;5.70;;;9.80;37.90;;;;;;5066878;28;46360;-70
2023/05/25 02:41:26;;;;;;;16.23;6.00;;;9.80;38.00;;;;;;5066987;28;46347;-68
2023/05/25 02:43:51;;;;;;;13.10;5.80;;;9.70;38.00;;;;;;5067131;28;46691;-69
2023/05/25 02:46:17;;;;;;;15.33;6.03;;;9.70;38.10;;;;;;5064056;28;46428;-68
2023/05/25 02:48:43;;;;;;;17.93;5.70;;;9.70;37.90;;;;;;5063409;28;46543;-69
2023/05/25 02:51:09;;;;;;;9.53;5.67;;;9.80;38.90;;;;;;5068284;28;46336;-68
2023/05/25 02:53:35;;;;;;;11.43;5.30;;;9.80;37.70;;;;;;5069509;27;46337;-69
2023/05/25 02:56:03;;;;;;;15.93;6.50;;;9.80;37.70;;;;;;5063978;28;46942;-71
2023/05/25 02:58:29;;;;;;;14.50;5.23;;;9.80;37.80;;;;;;5063597;27;46355;-70
2023/05/25 03:00:54;;;;;;;12.90;5.97;;;9.70;38.20;;;;;;5065009;28;46455;-68
2023/05/25 03:03:20;;;;;;;15.27;6.40;;;9.60;38.60;;;;;;5068782;28;46523;-68
2023/05/25 03:05:46;;;;;;;21.57;5.97;;;9.60;38.90;;;;;;5065634;28;46381;-68
2023/05/25 03:08:11;;;;;;;18.07;6.60;;;9.60;39.00;;;;;;5067486;28;46668;-68
2023/05/25 03:10:37;;;;;;;14.83;6.23;;;9.50;39.00;;;;;;5070094;27;46452;-68
2023/05/25 03:13:02;;;;;;;13.27;6.60;;;9.50;39.00;;;;;;5069984;28;46331;-68
2023/05/25 03:15:28;;;;;;;15.23;6.40;;;9.50;39.00;;;;;;5069988;28;47025;-70
2023/05/25 03:17:55;;;;;;;19.73;6.80;;;9.50;39.00;;;;;;5067927;28;45901;-68
2023/05/25 03:20:23;;;;;;;15.50;6.40;;;9.50;39.00;;;;;;5066414;28;46303;-68
2023/05/25 03:22:49;;;;;;;21.90;7.00;;;9.50;39.00;;;;;;5067955;28;46593;-69
2023/05/25 03:25:14;;;;;;;20.73;7.33;;;9.60;39.00;;;;;;5064165;28;47094;-68
2023/05/25 03:27:40;;;;;;;52.90;22.80;;;9.60;39.10;;;;;;5065274;28;46432;-69
2023/05/25 03:30:06;;;;;;;115.77;49.53;;;9.50;38.90;;;;;;5067565;28;46382;-68
2023/05/25 03:32:32;;;;;;;105.73;46.73;;;9.50;38.90;;;;;;5067699;28;45937;-71
2023/05/25 03:34:58;;;;;;;114.83;53.60;;;9.70;39.10;;;;;;5062515;28;47257;-68
2023/05/25 03:37:23;;;;;;;63.10;28.17;;;10.00;37.60;;;;;;5066033;28;45805;-69
2023/05/25 03:39:49;;;;;;;42.90;21.50;;;10.20;36.80;;;;;;5070378;28;46276;-68
2023/05/25 03:42:15;;;;;;;46.73;16.53;;;10.40;36.50;;;;;;5070004;28;46012;-68
2023/05/25 03:44:40;;;;;;;20.93;8.17;;;10.50;36.20;;;;;;5064767;28;46551;-68
2023/05/25 03:47:06;;;;;;;16.03;7.50;;;10.60;35.90;;;;;;5068899;28;46462;-70
2023/05/25 03:49:32;;;;;;;16.70;7.37;;;10.70;35.60;;;;;;5068002;28;46420;-64
2023/05/25 03:52:00;;;;;;;18.83;6.20;;;10.80;35.50;;;;;;5064629;28;46310;-66
2023/05/25 03:54:26;;;;;;;18.43;7.07;;;10.80;35.90;;;;;;5064771;28;47214;-66
2023/05/25 03:56:52;;;;;;;20.17;6.30;;;10.80;36.20;;;;;;5068098;28;46443;-67
2023/05/25 03:59:17;;;;;;;14.73;6.43;;;10.80;36.30;;;;;;5069456;28;46090;-67
2023/05/25 04:01:43;;;;;;;15.33;6.50;;;10.80;36.50;;;;;;5065357;28;46462;-66
2023/05/25 04:04:09;;;;;;;16.30;6.63;;;10.80;36.60;;;;;;5066723;28;46251;-67
2023/05/25 04:06:36;;;;;;;14.80;5.77;;;10.80;36.70;;;;;;5063022;27;46287;-67
2023/05/25 04:09:03;;;;;;;15.50;6.73;;;10.80;37.00;;;;;;5063730;28;46755;-67
2023/05/25 04:11:29;;;;;;;15.10;7.10;;;10.90;36.90;;;;;;5072487;28;46455;-66
2023/05/25 04:13:54;;;;;;;14.70;6.40;;;11.00;36.70;;;;;;5064910;28;46309;-67
2023/05/25 04:16:20;;;;;;;13.53;6.50;;;11.10;36.60;;;;;;5065817;28;46452;-67
2023/05/25 04:18:46;;;;;;;15.03;6.43;;;11.20;36.60;;;;;;5064033;28;46314;-68
2023/05/25 04:21:11;;;;;;;16.77;6.83;;;11.20;36.60;;;;;;5063014;28;46423;-67
2023/05/25 04:23:37;;;;;;;18.40;7.70;;;11.20;37.90;;;;;;5065755;28;47489;-67
2023/05/25 04:26:04;;;;;;;17.80;6.60;;;11.20;37.20;;;;;;5065823;28;46422;-67
2023/05/25 04:28:31;;;;;;;15.60;6.60;;;11.20;37.30;;;;;;5066654;27;46307;-66
2023/05/25 04:30:56;;;;;;;19.03;7.70;;;11.20;37.50;;;;;;5066916;28;46239;-66
2023/05/25 04:33:23;;;;;;;18.30;7.30;;;11.20;37.70;;;;;;5069046;28;47140;-66
2023/05/25 04:35:49;;;;;;;18.83;7.40;;;11.30;37.80;;;;;;5064816;28;46389;-64
2023/05/25 04:38:19;;;;;;;21.43;6.80;;;11.30;37.90;;;;;;5065809;27;46502;-67
2023/05/25 04:40:47;;;;;;;26.53;7.30;;;11.40;38.00;;;;;;5065691;28;46362;-66
2023/05/25 04:43:16;;;;;;;18.93;7.43;;;11.40;37.80;;;;;;5067023;28;47197;-67
2023/05/25 04:45:44;;;;;;;19.87;8.50;;;11.50;37.90;;;;;;5063891;28;46479;-65
2023/05/25 04:48:11;;;;;;;17.20;8.40;;;11.50;38.10;;;;;;5064072;28;46460;-66
2023/05/25 04:50:39;;;;;;;19.87;7.90;;;11.50;38.10;;;;;;5065716;28;46373;-67
2023/05/25 04:53:05;;;;;;;15.57;8.23;;;11.60;38.20;;;;;;5067049;28;47029;-66
2023/05/25 04:55:30;;;;;;;19.90;7.87;;;11.70;38.20;;;;;;5066914;27;45774;-66
2023/05/25 04:57:56;;;;;;;14.13;7.63;;;11.70;38.40;;;;;;5066436;28;46593;-66
2023/05/25 05:00:21;;;;;;;19.33;8.23;;;11.70;38.80;;;;;;5067286;28;45816;-66
2023/05/25 05:02:47;;;;;;;16.27;8.10;;;11.80;38.90;;;;;;5065688;28;46448;-66
2023/05/25 05:05:13;;;;;;;15.80;8.10;;;11.90;38.70;;;;;;5067548;28;46346;-66
2023/05/25 05:07:38;;;;;;;16.93;8.77;;;11.90;38.60;;;;;;5061516;28;46995;-66
2023/05/25 05:10:05;;;;;;;23.30;8.90;;;12.00;39.00;;;;;;5068751;28;46370;-66
2023/05/25 05:12:30;;;;;;;18.00;8.60;;;12.00;39.20;;;;;;5067321;28;47129;-66
2023/05/25 05:14:56;;;;;;;15.00;8.23;;;12.00;40.10;;;;;;5071809;28;46367;-66
2023/05/25 05:17:22;;;;;;;21.43;8.67;;;12.10;40.00;;;;;;5069025;27;46412;-66
2023/05/25 05:19:48;;;;;;;28.50;10.00;;;12.20;40.20;;;;;;5074036;28;46766;-66
2023/05/25 05:22:14;;;;;;;20.07;8.07;;;12.20;40.50;;;;;;5075838;28;46559;-66
2023/05/25 05:24:41;;;;;;;20.00;9.20;;;12.20;40.50;;;;;;5070925;28;46435;-66
2023/05/25 05:27:06;;;;;;;14.53;8.00;;;12.20;40.40;;;;;;5069568;28;46333;-66
2023/05/25 05:29:33;;;;;;;14.40;7.70;;;12.40;40.60;;;;;;5071257;27;46419;-66
2023/05/25 05:31:59;;;;;;;18.30;8.90;;;12.40;40.50;;;;;;5069481;28;47095;-66
2023/05/25 05:34:25;;;;;;;18.50;9.37;;;12.50;39.80;;;;;;5069544;27;46494;-66
2023/05/25 05:36:51;;;;;;;24.37;8.30;;;12.60;39.70;;;;;;5071241;28;46416;-66
2023/05/25 05:39:16;;;;;;;14.83;8.67;;;12.60;39.90;;;;;;5072972;27;45873;-66
2023/05/25 05:41:44;;;;;;;20.20;7.70;;;12.70;40.00;;;;;;5068653;27;47103;-65
2023/05/25 05:44:11;;;;;;;16.83;8.33;;;12.80;39.90;;;;;;5067435;28;46448;-66
2023/05/25 05:46:37;;;;;;;27.00;9.03;;;12.80;39.70;;;;;;5066774;28;46499;-65
2023/05/25 05:49:03;;;;;;;22.27;9.13;;;12.80;40.10;;;;;;5067298;28;46424;-65
2023/05/25 05:51:28;;;;;;;20.70;8.67;;;12.80;40.20;;;;;;5064162;27;46436;-65
2023/05/25 05:53:54;;;;;;;14.37;8.10;;;12.70;40.80;;;;;;5067332;28;46421;-65
2023/05/25 05:56:20;;;;;;;17.10;8.67;;;12.80;40.80;;;;;;5069487;28;46483;-66
2023/05/25 05:58:48;;;;;;;18.80;9.13;;;13.00;40.00;;;;;;5060157;28;46505;-66
2023/05/25 06:01:17;;;;;;;16.83;8.33;;;13.10;39.80;;;;;;5064910;27;46623;-67
2023/05/25 06:03:44;;;;;;;19.10;8.63;;;13.10;39.80;;;;;;5066300;28;47358;-66
2023/05/25 06:06:10;;;;;;;16.47;8.73;;;13.20;39.90;;;;;;5070101;27;46834;-65
2023/05/25 06:08:36;;;;;;;20.97;9.47;;;13.10;40.10;;;;;;5064228;27;46791;-65
2023/05/25 06:11:01;;;;;;;20.97;9.93;;;13.20;40.00;;;;;;5069017;28;46386;-65
2023/05/25 06:13:27;;;;;;;22.30;9.40;;;13.20;40.70;;;;;;5070553;27;46627;-65
2023/05/25 06:15:52;;;;;;;24.20;10.90;;;13.30;40.80;;;;;;5068335;28;45929;-65
2023/05/25 06:18:18;;;;;;;14.10;8.20;;;13.30;40.80;;;;;;5069617;28;46479;-65
2023/05/25 06:20:43;;;;;;;19.33;9.03;;;13.30;41.40;;;;;;5067973;27;46639;-65
2023/05/25 06:23:11;;;;;;;17.17;8.80;;;13.30;41.40;;;;;;5069120;28;46405;-64
2023/05/25 06:25:37;;;;;;;19.70;9.20;;;13.40;41.50;;;;;;5064677;28;46405;-66
2023/05/25 06:28:02;;;;;;;16.67;8.93;;;13.50;41.50;;;;;;5064682;28;45978;-65
2023/05/25 06:30:28;;;;;;;19.03;9.87;;;13.50;41.10;;;;;;5070931;27;46478;-66
2023/05/25 06:32:54;;;;;;;22.60;10.50;;;13.60;41.10;;;;;;5065261;28;46601;-66
2023/05/25 06:35:20;;;;;;;22.63;9.60;;;13.60;41.10;;;;;;5065538;27;46488;-66
2023/05/25 06:37:49;;;;;;;21.50;10.60;;;13.80;41.20;;;;;;5065978;28;46438;-66
2023/05/25 06:40:17;;;;;;;23.50;9.77;;;14.00;40.70;;;;;;5065970;28;46460;-66
2023/05/25 06:42:43;;;;;;;15.43;9.80;;;14.10;40.60;;;;;;5065252;28;46468;-70
2023/05/25 06:45:09;;;;;;;24.13;10.73;;;14.40;40.00;;;;;;5065823;28;46485;-65
2023/05/25 06:47:35;;;;;;;19.30;10.00;;;14.40;40.20;;;;;;5068933;28;46389;-67
2023/05/25 06:50:01;;;;;;;23.30;9.53;;;14.50;40.10;;;;;;5066956;28;48045;-66
2023/05/25 06:52:27;;;;;;;22.60;10.83;;;14.60;40.00;;;;;;5063492;27;46439;-66
2023/05/25 06:54:53;;;;;;;16.87;9.77;;;14.70;40.10;;;;;;5071173;27;46507;-66
2023/05/25 06:57:19;;;;;;;21.87;10.20;;;14.80;39.90;;;;;;5068084;28;46634;-65
2023/05/25 06:59:44;;;;;;;19.40;9.17;;;14.90;39.50;;;;;;5068833;28;46463;-65
2023/05/25 07:02:10;;;;;;;21.10;10.03;;;15.00;39.50;;;;;;5067035;28;46445;-66
2023/05/25 07:04:36;;;;;;;20.53;9.60;;;15.10;39.20;;;;;;5067257;28;46443;-66
2023/05/25 07:07:02;;;;;;;21.30;11.90;;;15.00;39.20;;;;;;5069223;28;46707;-65
2023/05/25 07:09:28;;;;;;;17.30;9.50;;;15.00;39.40;;;;;;5065894;28;47311;-67
2023/05/25 07:11:53;;;;;;;23.57;10.47;;;15.20;39.20;;;;;;5064775;28;46464;-65
2023/05/25 07:14:19;;;;;;;16.30;10.50;;;15.30;38.80;;;;;;5068604;28;46424;-65
2023/05/25 07:16:45;;;;;;;19.90;9.77;;;15.30;38.70;;;;;;5068976;27;46591;-65
2023/05/25 07:19:11;;;;;;;20.23;11.10;;;15.30;38.70;;;;;;5069050;28;46511;-66
2023/05/25 07:21:36;;;;;;;23.50;11.20;;;15.40;38.50;;;;;;5067766;27;46356;-64
2023/05/25 07:24:03;;;;;;;22.73;10.93;;;15.50;38.10;;;;;;5065869;28;46410;-67
2023/05/25 07:26:30;;;;;;;20.50;10.67;;;15.50;38.10;;;;;;5068998;28;46714;-65
2023/05/25 07:28:56;;;;;;;19.07;10.90;;;15.60;38.00;;;;;;5063313;28;47102;-64
2023/05/25 07:31:22;;;;;;;19.70;10.33;;;15.60;37.90;;;;;;5068026;28;46682;-64
2023/05/25 07:33:48;;;;;;;17.80;10.80;;;15.70;37.50;;;;;;5065536;28;46473;-65
2023/05/25 07:36:14;;;;;;;19.17;11.07;;;15.80;37.10;;;;;;5067947;28;46534;-65
2023/05/25 07:38:39;;;;;;;19.40;10.37;;;15.80;36.70;;;;;;5064048;28;46318;-66
2023/05/25 07:41:05;;;;;;;30.60;11.07;;;15.80;36.90;;;;;;5068207;28;46556;-64
2023/05/25 07:43:31;;;;;;;20.77;10.30;;;15.90;36.60;;;;;;5067285;28;46484;-66
2023/05/25 07:45:56;;;;;;;15.23;10.00;;;16.00;36.10;;;;;;5063991;28;46537;-64
2023/05/25 07:48:22;;;;;;;22.97;9.90;;;16.00;36.10;;;;;;5065004;28;46551;-64
2023/05/25 07:50:48;;;;;;;19.60;11.03;;;16.00;36.00;;;;;;5064260;28;46545;-65
2023/05/25 07:53:13;;;;;;;17.20;9.30;;;15.90;35.90;;;;;;5067349;28;46354;-64
2023/05/25 07:55:39;;;;;;;17.13;9.90;;;15.80;36.10;;;;;;5064693;28;47610;-64
2023/05/25 07:58:06;;;;;;;16.63;9.87;;;15.80;36.10;;;;;;5064939;28;46681;-65
2023/05/25 08:00:32;;;;;;;19.23;10.93;;;15.80;35.80;;;;;;5065691;28;46357;-67
2023/05/25 08:02:58;;;;;;;14.43;9.60;;;15.90;35.40;;;;;;5066171;28;45834;-64
2023/05/25 08:05:24;;;;;;;19.73;9.83;;;16.10;35.10;;;;;;5062661;28;46736;-64
2023/05/25 08:07:50;;;;;;;20.67;9.93;;;16.10;34.60;;;;;;5065745;28;48066;-66
2023/05/25 08:10:15;;;;;;;21.30;9.50;;;16.10;34.60;;;;;;5065345;28;46427;-64
2023/05/25 08:12:41;;;;;;;22.37;10.80;;;16.10;35.00;;;;;;5064543;28;46330;-66
2023/05/25 08:15:07;;;;;;;15.20;9.47;;;16.00;34.80;;;;;;5067479;28;46276;-64
2023/05/25 08:17:32;;;;;;;16.30;10.20;;;16.10;34.50;;;;;;5069067;28;46387;-66
2023/05/25 08:19:58;;;;;;;19.23;9.27;;;16.20;34.20;;;;;;5063129;28;46334;-67
2023/05/25 08:22:23;;;;;;;21.43;9.80;;;16.40;34.10;;;;;;5067437;28;46423;-66
2023/05/25 08:24:49;;;;;;;18.73;9.10;;;16.50;33.50;;;;;;5067848;27;46223;-67
2023/05/25 08:27:15;;;;;;;13.40;10.07;;;16.70;33.10;;;;;;5069107;27;46432;-65
2023/05/25 08:29:41;;;;;;;22.40;11.30;;;17.00;32.30;;;;;;5066235;28;46515;-66
2023/05/25 08:32:07;;;;;;;18.17;10.00;;;17.10;31.40;;;;;;5062266;28;46441;-65
2023/05/25 08:34:33;;;;;;;16.87;9.60;;;17.20;31.50;;;;;;5070480;28;46386;-67
2023/05/25 08:36:58;;;;;;;18.27;9.63;;;17.30;31.60;;;;;;5061072;28;47886;-64
2023/05/25 08:39:24;;;;;;;18.23;9.50;;;17.10;31.40;;;;;;5067547;28;46357;-67
2023/05/25 08:41:50;;;;;;;15.90;9.83;;;17.20;31.50;;;;;;5069062;28;46543;-66
2023/05/25 08:44:16;;;;;;;17.47;9.30;;;17.40;31.20;;;;;;5064953;28;46649;-67
2023/05/25 08:46:42;;;;;;;17.40;10.40;;;17.60;30.20;;;;;;5068452;28;46394;-65
2023/05/25 08:49:12;;;;;;;17.13;10.10;;;17.70;29.90;;;;;;5067313;28;46797;-66
2023/05/25 08:51:50;;;;;;;15.63;9.60;;;17.70;29.60;;;;;;5071215;27;46411;-66
2023/05/25 08:54:23;;;;;;;15.53;8.73;;;17.80;29.60;;;;;;5072559;28;46435;-66
2023/05/25 08:56:54;;;;;;;17.20;9.73;;;17.80;29.60;;;;;;5068598;28;46535;-66
2023/05/25 08:59:30;;;;;;;19.50;10.27;;;17.80;29.30;;;;;;5068159;27;46473;-66
2023/05/25 09:02:07;;;;;;;18.93;9.70;;;17.70;29.20;;;;;;5068485;28;45818;-65
2023/05/25 09:04:33;;;;;;;13.80;9.30;;;17.70;29.20;;;;;;5064296;28;46417;-66
2023/05/25 09:07:00;;;;;;;18.97;9.63;;;17.80;28.90;;;;;;5069507;28;46238;-66
2023/05/25 09:09:26;;;;;;;18.80;9.73;;;17.80;29.00;;;;;;5068487;28;46321;-67
2023/05/25 09:11:52;;;;;;;18.37;10.10;;;17.60;29.10;;;;;;5069732;28;46472;-66
2023/05/25 09:14:18;;;;;;;18.00;9.40;;;17.60;29.00;;;;;;5066501;27;46485;-66
2023/05/25 09:16:45;;;;;;;15.53;9.30;;;17.80;28.80;;;;;;5071308;28;46675;-66
2023/05/25 09:19:11;;;;;;;14.00;8.50;;;17.60;29.00;;;;;;5072437;28;46426;-68
2023/05/25 09:21:36;;;;;;;20.90;10.70;;;17.60;29.10;;;;;;5067549;28;46374;-64
2023/05/25 09:24:02;;;;;;;15.37;8.13;;;17.80;28.80;;;;;;5069882;28;46553;-68
2023/05/25 09:26:28;;;;;;;15.50;9.20;;;17.90;28.60;;;;;;5070278;28;46508;-67
2023/05/25 09:28:54;;;;;;;13.87;8.27;;;17.70;28.60;;;;;;5069718;28;46467;-68
2023/05/25 09:31:22;;;;;;;19.73;9.73;;;17.80;28.60;;;;;;5070283;28;46281;-67
2023/05/25 09:33:48;;;;;;;16.50;9.53;;;17.80;28.60;;;;;;5068483;28;46395;-68
2023/05/25 09:36:16;;;;;;;18.53;10.77;;;17.70;28.60;;;;;;5071582;28;47048;-65
2023/05/25 09:38:42;;;;;;;17.40;8.57;;;17.80;28.20;;;;;;5077281;28;46787;-63
2023/05/25 09:41:08;;;;;;;19.53;9.07;;;17.90;27.80;;;;;;5071432;28;46321;-64
2023/05/25 09:43:34;;;;;;;17.00;8.97;;;18.00;27.60;;;;;;5067584;28;46632;-63
2023/05/25 09:46:00;;;;;;;15.40;9.40;;;18.00;27.70;;;;;;5073077;28;46377;-64
2023/05/25 09:48:28;;;;;;;13.60;8.67;;;18.00;27.70;;;;;;5069236;28;46365;-66
2023/05/25 09:50:54;;;;;;;20.23;9.07;;;18.10;27.50;;;;;;5063895;28;46455;-64
2023/05/25 09:53:20;;;;;;;16.03;8.50;;;18.00;27.40;;;;;;5071877;27;46333;-65
2023/05/25 09:55:48;;;;;;;18.73;8.90;;;18.00;27.90;;;;;;5066342;28;47071;-65
2023/05/25 09:58:14;;;;;;;13.47;8.30;;;18.00;28.00;;;;;;5065120;28;45954;-63
2023/05/25 10:00:40;;;;;;;18.07;8.13;;;18.00;27.70;;;;;;5066448;28;46616;-64
2023/05/25 10:03:06;;;;;;;15.90;9.60;;;17.80;27.80;;;;;;5069344;27;46515;-67
2023/05/25 10:05:32;;;;;;;21.23;9.70;;;17.90;27.70;;;;;;5070004;28;46901;-63
2023/05/25 10:07:59;;;;;;;13.30;8.70;;;17.90;27.70;;;;;;5070575;28;46038;-63
2023/05/25 10:10:25;;;;;;;15.07;8.50;;;18.40;27.40;;;;;;5068009;28;46385;-66
2023/05/25 10:12:52;;;;;;;14.00;8.20;;;18.50;26.90;;;;;;5066974;27;46093;-65
2023/05/25 10:15:19;;;;;;;16.23;8.53;;;18.50;27.00;;;;;;5083295;27;46694;-63
2023/05/25 10:17:53;;;;;;;15.07;8.20;;;18.70;26.60;;;;;;5066717;28;46487;-67
2023/05/25 10:20:21;;;;;;;19.83;10.23;;;18.70;26.40;;;;;;5070973;28;46369;-67
2023/05/25 10:22:58;;;;;;;15.20;9.10;;;18.50;26.50;;;;;;5064671;28;46539;-69
2023/05/25 10:25:33;;;;;;;19.47;8.80;;;18.70;26.50;;;;;;5063475;28;47125;-68
2023/05/25 10:28:04;;;;;;;14.23;8.60;;;18.60;26.30;;;;;;5067627;27;46732;-65
2023/05/25 10:30:30;;;;;;;14.83;8.93;;;18.60;26.70;;;;;;5071198;28;46339;-67
2023/05/25 10:32:56;;;;;;;18.23;9.07;;;18.70;26.80;;;;;;5063486;27;46479;-72
2023/05/25 10:35:25;;;;;;;17.50;8.53;;;18.80;26.20;;;;;;5066736;28;46469;-67
2023/05/25 10:37:52;;;;;;;12.57;8.60;;;19.00;25.90;;;;;;5066578;27;45807;-67
2023/05/25 10:40:22;;;;;;;16.57;8.90;;;19.30;25.50;;;;;;5066070;28;46466;-66
2023/05/25 10:42:49;;;;;;;13.80;8.70;;;19.30;24.80;;;;;;5064623;28;46373;-65
2023/05/25 10:45:15;;;;;;;17.47;8.33;;;19.30;25.70;;;;;;5064204;28;46330;-67
2023/05/25 10:47:41;;;;;;;11.70;8.40;;;19.30;24.70;;;;;;5070095;28;46349;-66
2023/05/25 10:50:25;;;;;;;14.53;8.03;;;19.30;24.20;;;;;;5062314;27;46473;-67
2023/05/25 10:52:59;;;;;;;15.10;7.70;;;19.20;24.10;;;;;;5067821;28;46471;-66
2023/05/25 10:55:30;;;;;;;12.73;6.87;;;19.10;24.30;;;;;;5064398;28;46892;-66
2023/05/25 10:58:12;;;;;;;13.30;8.13;;;19.20;24.40;;;;;;5060524;28;46832;-66
2023/05/25 11:00:39;;;;;;;12.80;8.50;;;19.40;24.40;;;;;;5066520;28;46630;-67
2023/05/25 11:03:05;;;;;;;13.13;8.70;;;19.70;24.30;;;;;;5065432;28;46396;-66
2023/05/25 11:05:33;;;;;;;14.70;8.50;;;19.70;23.90;;;;;;5065215;28;46761;-69
2023/05/25 11:08:07;;;;;;;21.83;7.77;;;19.70;24.10;;;;;;5058919;28;46333;-66
2023/05/25 11:10:48;;;;;;;15.00;8.07;;;19.70;24.00;;;;;;5066273;28;46632;-65
2023/05/25 11:13:43;;;;;;;17.57;9.47;;;20.00;23.60;;;;;;5068020;28;46816;-67
2023/05/25 11:16:16;;;;;;;12.70;8.20;;;20.00;23.00;;;;;;5064827;28;47211;-66
2023/05/25 11:18:44;;;;;;;22.20;8.70;;;20.00;23.20;;;;;;5068539;28;46800;-65
2023/05/25 11:21:11;;;;;;;19.03;10.63;;;20.10;22.90;;;;;;5065285;28;45920;-68
2023/05/25 11:23:50;;;;;;;16.27;8.80;;;20.30;22.70;;;;;;5061587;28;46488;-65
2023/05/25 11:26:23;;;;;;;17.30;8.00;;;20.40;22.70;;;;;;5070914;28;47333;-67
2023/05/25 11:28:50;;;;;;;13.70;8.43;;;20.50;22.20;;;;;;5069855;28;46685;-66
2023/05/25 11:31:19;;;;;;;12.10;8.43;;;20.40;21.90;;;;;;5067037;28;46329;-65
2023/05/25 11:33:47;;;;;;;14.40;8.53;;;20.30;21.90;;;;;;5064527;28;46448;-64
2023/05/25 11:36:14;;;;;;;11.50;8.50;;;20.20;21.90;;;;;;5066870;27;46363;-65
2023/05/25 11:38:44;;;;;;;12.10;8.40;;;20.30;22.50;;;;;;5067467;28;46424;-67
2023/05/25 11:41:20;;;;;;;14.83;8.13;;;20.10;22.50;;;;;;5066865;28;46492;-65
2023/05/25 11:43:47;;;;;;;11.73;7.53;;;20.10;22.50;;;;;;5064385;27;46433;-66
2023/05/25 11:46:20;;;;;;;13.63;8.70;;;20.30;22.60;;;;;;5066156;28;46089;-67
2023/05/25 11:48:52;;;;;;;19.00;7.87;;;20.40;21.90;;;;;;5066490;27;46558;-65
2023/05/25 11:51:20;;;;;;;12.40;8.50;;;20.40;21.80;;;;;;5064049;27;46365;-66
2023/05/25 11:53:46;;;;;;;17.40;8.50;;;20.50;21.60;;;;;;5070368;28;46628;-66
2023/05/25 11:56:13;;;;;;;13.53;8.47;;;20.40;22.00;;;;;;5067560;28;47080;-65
2023/05/25 11:58:40;;;;;;;14.87;8.17;;;20.20;22.60;;;;;;5061600;28;45847;-65
2023/05/25 12:01:19;;;;;;;14.77;7.43;;;20.20;22.60;;;;;;5069046;28;46588;-65
2023/05/25 12:03:46;;;;;;;11.67;7.27;;;20.10;22.50;;;;;;5066107;28;46455;-66
2023/05/25 12:06:30;;;;;;;11.00;7.53;;;20.10;22.50;;;;;;5065361;27;47059;-66
2023/05/25 12:08:56;;;;;;;13.40;8.03;;;19.90;22.70;;;;;;5064119;28;46452;-66
2023/05/25 12:11:37;;;;;;;12.87;7.93;;;20.10;22.50;;;;;;5065238;28;46445;-66
2023/05/25 12:14:04;;;;;;;13.70;8.20;;;19.90;22.40;;;;;;5067958;28;46485;-65
2023/05/25 12:16:32;;;;;;;11.77;8.33;;;19.80;22.70;;;;;;5067361;28;47024;-64
2023/05/25 12:18:57;;;;;;;15.87;8.40;;;19.90;22.70;;;;;;5062836;27;46514;-64
2023/05/25 12:21:23;;;;;;;12.33;8.00;;;20.10;22.50;;;;;;5066462;28;46639;-65
2023/05/25 12:23:49;;;;;;;13.10;8.47;;;20.60;22.90;;;;;;5067307;28;46617;-64
2023/05/25 12:26:17;;;;;;;14.50;8.30;;;21.20;21.80;;;;;;5059385;28;48044;-64
2023/05/25 12:29:01;;;;;;;14.00;8.50;;;21.60;20.60;;;;;;5063446;28;45943;-64
2023/05/25 12:31:33;;;;;;;12.40;7.90;;;21.70;20.30;;;;;;5067804;28;46499;-65
2023/05/25 12:34:18;;;;;;;15.17;7.70;;;22.10;20.00;;;;;;5061960;28;46530;-63
2023/05/25 12:36:51;;;;;;;13.53;8.00;;;22.20;18.80;;;;;;5066522;28;46787;-65